Time;durP1;ratioP1;P1;durP2;ratioP2;P2;SDS_P1;SDS_P2;PMS_P1;PMS_P2;Temp;Humidity;BMP_temperature;BMP_pressure;BME280_temperature;BME280_humidity;BME280_pressure;Samples;Min_cycle;Max_cycle;Signal;HPM_P1;HPM_P2
2023/06/11 00:01:42;;;;;;;9.00;3.40;;;;;;;21.16;54.11;100531.10;107333;1254;97989;-68
2023/06/11 00:04:25;;;;;;;18.10;3.10;;;;;;;21.14;54.46;100530.30;107377;1254;97821;-70
2023/06/11 00:06:56;;;;;;;7.80;3.00;;;;;;;21.11;53.97;100529.10;107430;1254;109591;-68
2023/06/11 00:09:26;;;;;;;13.60;3.20;;;;;;;21.09;53.89;100531.86;107547;1254;109091;-68
2023/06/11 00:11:55;;;;;;;8.30;2.80;;;;;;;21.09;54.01;100534.27;107395;1254;107620;-69
2023/06/11 00:14:23;;;;;;;10.00;3.60;;;;;;;21.09;53.91;100535.40;107452;1254;97851;-68
2023/06/11 00:16:52;;;;;;;16.20;3.40;;;;;;;21.09;54.53;100536.45;107399;1254;97826;-68
2023/06/11 00:19:20;;;;;;;7.60;3.50;;;;;;;21.08;55.01;100537.80;107407;1254;112936;-68
2023/06/11 00:21:49;;;;;;;5.20;3.10;;;;;;;21.05;55.07;100539.70;107407;1254;109265;-68
2023/06/11 00:24:17;;;;;;;9.90;3.30;;;;;;;21.02;55.31;100538.73;107387;1257;109428;-68
2023/06/11 00:26:47;;;;;;;9.80;3.10;;;;;;;20.97;55.90;100537.34;107396;1254;97839;-68
2023/06/11 00:29:15;;;;;;;8.70;3.30;;;;;;;20.90;55.28;100544.11;107414;1254;97828;-71
2023/06/11 00:31:43;;;;;;;14.70;2.90;;;;;;;20.87;55.40;100550.64;107412;1254;111962;-71
2023/06/11 00:34:12;;;;;;;8.90;3.30;;;;;;;20.85;55.69;100555.98;107485;1254;109999;-69
2023/06/11 00:36:40;;;;;;;12.60;3.40;;;;;;;20.82;55.71;100557.70;107361;1254;108208;-68
2023/06/11 00:39:11;;;;;;;5.70;3.00;;;;;;;20.76;55.89;100558.36;107393;1254;97826;-67
2023/06/11 00:41:45;;;;;;;7.90;3.30;;;;;;;20.72;55.94;100560.61;107446;1254;97714;-67
2023/06/11 00:44:18;;;;;;;10.90;3.60;;;;;;;20.71;56.01;100557.33;107387;1254;110244;-68
2023/06/11 00:46:48;;;;;;;5.50;2.60;;;;;;;20.70;55.98;100561.57;107432;1253;109697;-68
2023/06/11 00:49:18;;;;;;;10.00;3.30;;;;;;;20.70;56.30;100555.63;107385;1254;108188;-68
2023/06/11 00:51:46;;;;;;;7.50;3.40;;;;;;;20.68;56.56;100559.46;107264;1254;97985;-68
2023/06/11 00:54:16;;;;;;;9.70;3.20;;;;;;;20.65;56.37;100561.23;107402;1254;98356;-66
2023/06/11 00:56:47;;;;;;;7.00;4.00;;;;;;;20.60;56.57;100564.48;107433;1254;112394;-69
2023/06/11 00:59:20;;;;;;;14.60;4.80;;;;;;;20.56;56.61;100566.02;107479;1254;109384;-68
2023/06/11 01:02:23;;;;;;;10.10;3.40;;;;;;;20.49;57.18;100567.72;107369;1254;107782;-67
2023/06/11 01:04:57;;;;;;;13.70;4.70;;;;;;;20.42;57.20;100563.20;107299;1254;97903;-68
2023/06/11 01:07:30;;;;;;;6.30;3.50;;;;;;;20.38;57.18;100559.49;107418;1254;97824;-69
2023/06/11 01:10:03;;;;;;;7.90;3.10;;;;;;;20.34;57.65;100556.23;107411;1254;111737;-67
2023/06/11 01:12:35;;;;;;;11.50;3.60;;;;;;;20.29;57.50;100557.54;107389;1254;108814;-68
2023/06/11 01:15:04;;;;;;;9.20;4.20;;;;;;;20.25;58.43;100563.91;107385;1254;107469;-68
2023/06/11 01:17:46;;;;;;;9.20;3.40;;;;;;;20.16;58.74;100569.18;107402;1254;97838;-68
2023/06/11 01:20:19;;;;;;;7.00;3.60;;;;;;;20.04;58.98;100575.14;107387;1254;97862;-67
2023/06/11 01:22:57;;;;;;;9.00;3.50;;;;;;;19.96;59.53;100572.91;107417;1253;112200;-68
2023/06/11 01:25:48;;;;;;;8.10;3.10;;;;;;;19.86;59.84;100570.22;107336;1254;109936;-67
2023/06/11 01:28:30;;;;;;;7.30;3.20;;;;;;;19.76;60.49;100574.39;107344;1254;108665;-67
2023/06/11 01:31:05;;;;;;;10.40;3.50;;;;;;;19.66;61.44;100574.89;107296;1254;97858;-68
2023/06/11 01:33:35;;;;;;;9.70;3.50;;;;;;;19.59;61.40;100575.55;107328;1254;97746;-68
2023/06/11 01:36:10;;;;;;;8.00;2.90;;;;;;;19.55;61.59;100578.85;107413;1254;112026;-68
2023/06/11 01:38:44;;;;;;;11.30;3.00;;;;;;;19.51;62.24;100586.03;107373;1254;109745;-68
2023/06/11 01:41:36;;;;;;;13.10;3.10;;;;;;;19.44;62.86;100585.73;107358;1254;108205;-68
2023/06/11 01:44:05;;;;;;;11.80;3.50;;;;;;;19.40;62.70;100586.80;107311;1253;97874;-69
2023/06/11 01:46:34;;;;;;;7.80;3.90;;;;;;;19.38;63.00;100590.91;107336;1253;97931;-68
2023/06/11 01:49:03;;;;;;;6.20;3.10;;;;;;;19.33;63.28;100590.03;107303;1254;111201;-69
2023/06/11 01:51:31;;;;;;;7.50;3.40;;;;;;;19.30;63.87;100588.74;107307;1253;109097;-69
2023/06/11 01:53:59;;;;;;;12.50;3.20;;;;;;;19.25;64.02;100594.04;107266;1254;107544;-70
2023/06/11 01:56:28;;;;;;;8.80;3.70;;;;;;;19.20;64.54;100593.50;107345;1254;97850;-69
2023/06/11 01:58:57;;;;;;;7.10;3.70;;;;;;;19.13;64.93;100597.17;107404;1254;97832;-68
2023/06/11 02:01:28;;;;;;;7.50;3.80;;;;;;;19.08;65.04;100597.30;107319;1253;112227;-68
2023/06/11 02:03:57;;;;;;;6.80;4.00;;;;;;;19.06;64.88;100595.17;107413;1254;110369;-67
2023/06/11 02:06:25;;;;;;;6.60;3.70;;;;;;;19.05;65.09;100597.48;107394;1254;108673;-68
2023/06/11 02:08:54;;;;;;;6.20;3.70;;;;;;;19.05;64.23;100602.02;107251;1254;97870;-69
2023/06/11 02:11:22;;;;;;;12.20;3.70;;;;;;;19.10;64.25;100604.98;107306;1254;98463;-67
2023/06/11 02:13:52;;;;;;;9.00;3.70;;;;;;;19.12;64.42;100604.84;107355;1254;111959;-68
2023/06/11 02:16:20;;;;;;;10.00;3.20;;;;;;;19.09;64.28;100608.60;107414;1254;110029;-68
2023/06/11 02:18:49;;;;;;;6.90;3.40;;;;;;;19.09;64.64;100610.10;107387;1254;107718;-68
2023/06/11 02:21:17;;;;;;;7.10;3.50;;;;;;;19.03;64.71;100610.27;107304;1254;97893;-68
2023/06/11 02:23:45;;;;;;;8.40;3.50;;;;;;;18.96;65.02;100610.79;107392;1254;98001;-68
2023/06/11 02:26:14;;;;;;;8.10;3.40;;;;;;;18.94;65.11;100606.02;107408;1254;110377;-68
2023/06/11 02:28:43;;;;;;;10.20;3.20;;;;;;;18.94;65.03;100608.13;107363;1257;109836;-69
2023/06/11 02:31:11;;;;;;;10.90;3.40;;;;;;;18.93;65.61;100614.59;107370;1258;106912;-71
2023/06/11 02:33:40;;;;;;;6.90;3.70;;;;;;;18.91;65.69;100619.39;107363;1257;97707;-69
2023/06/11 02:36:08;;;;;;;14.50;3.60;;;;;;;18.88;65.93;100617.98;107366;1254;97864;-67
2023/06/11 02:38:36;;;;;;;11.80;4.00;;;;;;;18.87;65.64;100619.61;107403;1254;112698;-66
2023/06/11 02:41:04;;;;;;;11.00;4.30;;;;;;;18.87;66.11;100626.61;107205;1254;109669;-67
2023/06/11 02:43:32;;;;;;;7.30;3.50;;;;;;;18.87;65.56;100632.70;107334;1259;108619;-67
2023/06/11 02:46:01;;;;;;;9.40;3.70;;;;;;;18.90;65.53;100637.67;107295;1255;97848;-66
2023/06/11 02:48:29;;;;;;;11.50;3.70;;;;;;;18.91;65.69;100637.89;107322;1257;97851;-67
2023/06/11 02:50:57;;;;;;;5.90;3.80;;;;;;;18.88;65.78;100638.44;107375;1254;111069;-68
2023/06/11 02:53:25;;;;;;;7.50;3.60;;;;;;;18.85;66.50;100641.55;107312;1254;109557;-67
2023/06/11 02:55:53;;;;;;;10.10;4.20;;;;;;;18.79;66.57;100641.27;107162;1254;108608;-67
2023/06/11 02:58:22;;;;;;;9.00;3.90;;;;;;;18.76;66.66;100639.99;107358;1254;98160;-68
2023/06/11 03:00:50;;;;;;;8.70;3.70;;;;;;;18.74;66.99;100638.66;107363;1254;97829;-68
2023/06/11 03:03:18;;;;;;;11.20;3.70;;;;;;;18.70;67.45;100641.85;107389;1254;111705;-70
2023/06/11 03:05:47;;;;;;;12.10;4.20;;;;;;;18.68;67.08;100638.86;107404;1254;109785;-69
2023/06/11 03:08:17;;;;;;;10.30;3.50;;;;;;;18.67;67.23;100640.20;107366;1254;108338;-70
2023/06/11 03:10:46;;;;;;;4.70;3.60;;;;;;;18.65;67.70;100637.95;107272;1256;97854;-68
2023/06/11 03:13:14;;;;;;;8.90;3.60;;;;;;;18.63;67.66;100643.42;107302;1254;98615;-67
2023/06/11 03:15:44;;;;;;;13.80;4.60;;;;;;;18.62;67.98;100642.77;107425;1254;111610;-68
2023/06/11 03:18:12;;;;;;;6.60;4.10;;;;;;;18.60;68.11;100644.65;107442;1254;110315;-68
2023/06/11 03:20:43;;;;;;;11.60;4.40;;;;;;;18.57;68.21;100648.71;107410;1254;107910;-68
2023/06/11 03:23:14;;;;;;;7.00;4.00;;;;;;;18.57;67.95;100650.22;107437;1254;97903;-68
2023/06/11 03:25:43;;;;;;;13.40;4.30;;;;;;;18.61;67.87;100653.70;107456;1254;97711;-67
2023/06/11 03:28:12;;;;;;;7.70;3.80;;;;;;;18.64;67.84;100656.09;107372;1254;110697;-66
2023/06/11 03:30:40;;;;;;;7.40;3.80;;;;;;;18.63;67.94;100657.79;107400;1254;109111;-69
2023/06/11 03:33:09;;;;;;;10.00;4.00;;;;;;;18.65;67.51;100661.13;107403;1254;107839;-66
2023/06/11 03:35:38;;;;;;;6.40;3.90;;;;;;;18.72;67.47;100663.22;107172;1254;97838;-67
2023/06/11 03:38:14;;;;;;;6.20;3.50;;;;;;;18.76;67.68;100670.64;107417;1254;97724;-67
2023/06/11 03:40:42;;;;;;;13.10;4.80;;;;;;;18.76;67.55;100670.34;107320;1254;111036;-66
2023/06/11 03:43:11;;;;;;;11.40;4.00;;;;;;;18.79;67.26;100673.02;107408;1254;108569;-69
2023/06/11 03:45:41;;;;;;;14.00;4.10;;;;;;;18.86;67.03;100676.86;107409;1254;107608;-69
2023/06/11 03:48:09;;;;;;;8.50;4.20;;;;;;;18.89;67.00;100675.84;107395;1254;97816;-67
2023/06/11 03:50:37;;;;;;;9.20;3.70;;;;;;;18.90;66.72;100679.06;107303;1254;97976;-70
2023/06/11 03:53:06;;;;;;;5.80;3.10;;;;;;;18.91;66.40;100679.60;107379;1254;112269;-67
2023/06/11 03:55:34;;;;;;;6.20;4.10;;;;;;;18.99;66.28;100677.66;107431;1254;109603;-68
2023/06/11 03:58:02;;;;;;;5.40;3.50;;;;;;;19.11;65.93;100684.91;107436;1254;108503;-67
2023/06/11 04:00:32;;;;;;;6.00;4.20;;;;;;;19.20;65.55;100683.95;107436;1254;97819;-67
2023/06/11 04:03:01;;;;;;;8.10;3.70;;;;;;;19.24;65.32;100689.60;107431;1253;97805;-68
2023/06/11 04:05:36;;;;;;;7.40;3.80;;;;;;;19.33;65.13;100690.61;107259;1259;112325;-68
2023/06/11 04:08:05;;;;;;;17.80;9.60;;;;;;;19.39;64.76;100692.44;107426;1258;109277;-67
2023/06/11 04:10:34;;;;;;;9.20;4.90;;;;;;;19.41;64.46;100693.70;107280;1254;107918;-67
2023/06/11 04:13:04;;;;;;;14.90;4.10;;;;;;;19.46;64.30;100697.77;107321;1254;98015;-67
2023/06/11 04:15:32;;;;;;;6.40;3.40;;;;;;;19.51;64.12;100696.80;107331;1259;98458;-69
2023/06/11 04:18:05;;;;;;;7.50;3.90;;;;;;;19.55;63.77;100697.16;107447;1253;112399;-67
2023/06/11 04:20:34;;;;;;;7.90;3.90;;;;;;;19.55;63.71;100692.22;107436;1254;108764;-68
2023/06/11 04:23:03;;;;;;;10.10;4.00;;;;;;;19.60;63.49;100688.81;107404;1257;107551;-66
2023/06/11 04:25:31;;;;;;;7.20;4.00;;;;;;;19.68;63.43;100686.60;107440;1254;97784;-69
2023/06/11 04:28:02;;;;;;;8.10;4.00;;;;;;;19.77;63.07;100690.57;107455;1254;99509;-68
2023/06/11 04:30:31;;;;;;;7.00;4.20;;;;;;;19.80;62.83;100687.74;107436;1254;111678;-69
2023/06/11 04:33:03;;;;;;;10.10;4.90;;;;;;;19.85;62.71;100688.39;107331;1254;108780;-68
2023/06/11 04:35:34;;;;;;;7.00;3.70;;;;;;;19.91;62.50;100693.98;107429;1254;108456;-68
2023/06/11 04:38:05;;;;;;;6.30;3.80;;;;;;;19.98;62.22;100697.43;107328;1254;97946;-67
2023/06/11 04:40:36;;;;;;;10.50;4.90;;;;;;;20.07;62.06;100702.73;107459;1257;97835;-68
2023/06/11 04:43:06;;;;;;;7.50;4.40;;;;;;;20.12;61.73;100702.02;107473;1254;112179;-68
2023/06/11 04:45:38;;;;;;;8.90;4.40;;;;;;;20.17;61.45;100700.86;107424;1254;109586;-67
2023/06/11 04:48:09;;;;;;;7.40;3.80;;;;;;;20.21;61.38;100703.61;107472;1254;108152;-69
2023/06/11 04:50:38;;;;;;;8.10;4.50;;;;;;;20.25;61.15;100698.63;107451;1254;97825;-68
2023/06/11 04:53:12;;;;;;;6.90;4.30;;;;;;;20.27;61.02;100697.51;107468;1257;98357;-68
2023/06/11 04:55:42;;;;;;;9.00;4.10;;;;;;;20.27;60.96;100701.38;107484;1254;110905;-68
2023/06/11 04:58:10;;;;;;;9.90;4.30;;;;;;;20.28;60.78;100701.94;107328;1254;109957;-67
2023/06/11 05:00:39;;;;;;;16.50;5.10;;;;;;;20.30;60.92;100702.02;107376;1254;107020;-66
2023/06/11 05:03:08;;;;;;;7.70;3.80;;;;;;;20.27;60.72;100708.64;107420;1254;97704;-68
2023/06/11 05:05:38;;;;;;;12.80;4.40;;;;;;;20.27;60.77;100707.96;107329;1254;97813;-68
2023/06/11 05:08:07;;;;;;;9.40;3.80;;;;;;;20.22;60.73;100715.27;107419;1254;111713;-68
2023/06/11 05:10:37;;;;;;;6.20;4.20;;;;;;;20.20;60.67;100717.59;107245;1253;109292;-68
2023/06/11 05:13:06;;;;;;;14.40;4.80;;;;;;;20.18;60.84;100717.84;107448;1254;107849;-69
2023/06/11 05:15:34;;;;;;;7.60;4.30;;;;;;;20.11;60.70;100716.79;107389;1254;97807;-73
2023/06/11 05:18:04;;;;;;;8.00;3.60;;;;;;;20.14;60.84;100717.81;107496;1253;98334;-67
2023/06/11 05:20:33;;;;;;;8.60;4.00;;;;;;;20.20;60.87;100715.17;107309;1254;111925;-68
2023/06/11 05:23:03;;;;;;;6.00;3.50;;;;;;;20.26;60.94;100715.39;107407;1254;109717;-66
2023/06/11 05:25:35;;;;;;;11.80;7.00;;;;;;;20.30;60.79;100717.62;107442;1254;107412;-68
2023/06/11 05:28:07;;;;;;;10.40;3.60;;;;;;;20.37;60.57;100716.33;107394;1256;97833;-68
2023/06/11 05:30:36;;;;;;;9.90;3.40;;;;;;;20.40;60.33;100708.91;107383;1258;98341;-68
2023/06/11 05:33:07;;;;;;;15.10;4.30;;;;;;;20.35;60.46;100707.55;107306;1254;111707;-70
2023/06/11 05:35:38;;;;;;;10.60;4.30;;;;;;;20.29;60.42;100707.48;107407;1254;109190;-70
2023/06/11 05:38:06;;;;;;;9.20;3.60;;;;;;;20.36;60.83;100706.41;107421;1257;107283;-67
2023/06/11 05:40:36;;;;;;;10.30;4.40;;;;;;;20.39;60.78;100703.59;107423;1254;97816;-66
2023/06/11 05:43:08;;;;;;;18.40;3.70;;;;;;;20.43;60.77;100705.39;107254;1254;97948;-66
2023/06/11 05:45:37;;;;;;;10.00;3.20;;;;;;;20.43;60.59;100707.29;107422;1254;111298;-69
2023/06/11 05:48:06;;;;;;;11.10;4.20;;;;;;;20.39;60.58;100705.30;107447;1254;109710;-67
2023/06/11 05:50:38;;;;;;;12.30;4.30;;;;;;;20.38;60.50;100710.30;107435;1254;106989;-68
2023/06/11 05:53:09;;;;;;;5.90;4.20;;;;;;;20.38;60.44;100709.41;107373;1254;97819;-68
2023/06/11 05:55:39;;;;;;;9.20;4.00;;;;;;;20.42;60.36;100706.15;107451;1254;97694;-68
2023/06/11 05:58:09;;;;;;;9.30;4.20;;;;;;;20.49;60.36;100702.53;107385;1254;111808;-67
2023/06/11 06:00:38;;;;;;;15.30;4.80;;;;;;;20.59;60.36;100702.57;107441;1257;109339;-70
2023/06/11 06:03:06;;;;;;;13.70;4.80;;;;;;;20.68;60.21;100701.07;107426;1254;109050;-67
2023/06/11 06:05:35;;;;;;;8.50;4.20;;;;;;;20.71;60.35;100698.87;107438;1254;97848;-67
2023/06/11 06:08:04;;;;;;;11.70;4.90;;;;;;;20.78;60.64;100703.55;107394;1254;97698;-67
2023/06/11 06:10:33;;;;;;;10.50;4.30;;;;;;;20.78;60.17;100698.67;107313;1254;111090;-69
2023/06/11 06:13:04;;;;;;;7.80;4.40;;;;;;;20.80;60.49;100697.66;107377;1254;109515;-68
2023/06/11 06:15:33;;;;;;;7.30;4.10;;;;;;;20.77;60.06;100699.13;107404;1254;107679;-67
2023/06/11 06:18:03;;;;;;;8.10;4.20;;;;;;;20.82;60.03;100698.26;107323;1254;97829;-68
2023/06/11 06:20:37;;;;;;;7.40;3.90;;;;;;;20.93;59.89;100693.35;107424;1254;97807;-68
2023/06/11 06:23:05;;;;;;;7.40;4.20;;;;;;;21.08;59.79;100693.95;107483;1254;110685;-67
2023/06/11 06:25:39;;;;;;;11.30;4.30;;;;;;;21.20;59.48;100693.99;107396;1254;110067;-68
2023/06/11 06:28:09;;;;;;;7.20;3.70;;;;;;;21.17;58.98;100697.14;107338;1256;107475;-69
2023/06/11 06:30:40;;;;;;;10.90;6.20;;;;;;;21.17;59.13;100697.91;107457;1254;97719;-69
2023/06/11 06:33:10;;;;;;;7.00;3.40;;;;;;;21.39;59.38;100697.54;107329;1254;97859;-69
2023/06/11 06:35:39;;;;;;;6.30;3.70;;;;;;;21.70;58.75;100692.69;107359;1254;111351;-68
2023/06/11 06:38:08;;;;;;;7.30;3.40;;;;;;;21.93;58.36;100694.05;107475;1254;109984;-70
2023/06/11 06:40:36;;;;;;;7.00;3.40;;;;;;;22.05;57.80;100697.44;107263;1254;107663;-71
2023/06/11 06:43:05;;;;;;;10.60;4.20;;;;;;;22.23;57.16;100691.77;107426;1254;97706;-74
2023/06/11 06:45:34;;;;;;;3.90;3.50;;;;;;;22.33;56.64;100696.42;107252;1254;98959;-68
2023/06/11 06:48:11;;;;;;;11.10;3.80;;;;;;;22.36;56.47;100697.80;107435;1254;112304;-68
2023/06/11 06:50:40;;;;;;;5.20;3.60;;;;;;;22.37;56.78;100702.66;107154;1261;109020;-69
2023/06/11 06:53:09;;;;;;;6.60;3.60;;;;;;;22.46;56.82;100703.73;107281;1254;108322;-68
2023/06/11 06:55:38;;;;;;;11.30;3.80;;;;;;;22.60;56.50;100701.83;107417;1254;98363;-68
2023/06/11 06:58:06;;;;;;;12.30;4.00;;;;;;;22.70;55.76;100708.07;107438;1254;97704;-68
2023/06/11 07:00:35;;;;;;;7.10;3.80;;;;;;;22.76;55.89;100704.80;107317;1254;110505;-69
2023/06/11 07:03:04;;;;;;;4.70;3.50;;;;;;;22.82;55.78;100709.49;107480;1257;108700;-68
2023/06/11 07:05:33;;;;;;;14.70;3.80;;;;;;;22.83;55.57;100708.71;107320;1254;107677;-67
2023/06/11 07:08:03;;;;;;;9.40;3.40;;;;;;;22.84;55.32;100712.64;107482;1254;97850;-67
2023/06/11 07:10:32;;;;;;;10.00;4.50;;;;;;;22.79;55.43;100717.39;107418;1254;97719;-69
2023/06/11 07:13:01;;;;;;;8.40;4.40;;;;;;;22.78;55.32;100713.73;107490;1254;112462;-67
2023/06/11 07:15:29;;;;;;;10.80;3.70;;;;;;;22.81;55.10;100714.52;107245;1254;110804;-68
2023/06/11 07:17:58;;;;;;;10.30;3.80;;;;;;;22.85;55.17;100713.27;107294;1254;108612;-69
2023/06/11 07:20:28;;;;;;;10.10;3.80;;;;;;;22.89;55.12;100711.93;107412;1254;97927;-68
2023/06/11 07:22:59;;;;;;;12.70;4.10;;;;;;;22.91;54.71;100709.14;107185;1254;98449;-69
2023/06/11 07:25:30;;;;;;;10.30;4.60;;;;;;;22.96;54.78;100708.35;107429;1254;113230;-69
2023/06/11 07:28:03;;;;;;;8.00;4.00;;;;;;;23.03;54.64;100713.88;107340;1255;108348;-67
2023/06/11 07:30:33;;;;;;;7.20;3.30;;;;;;;23.13;54.61;100714.96;107316;1259;107781;-68
2023/06/11 07:33:01;;;;;;;7.90;3.70;;;;;;;23.22;54.50;100711.77;107320;1254;97804;-68
2023/06/11 07:35:30;;;;;;;11.30;3.90;;;;;;;23.33;54.39;100711.17;107462;1254;98363;-68
2023/06/11 07:37:58;;;;;;;10.90;3.90;;;;;;;23.42;54.32;100712.96;107271;1254;111439;-68
2023/06/11 07:40:27;;;;;;;14.80;4.40;;;;;;;23.50;54.02;100711.34;107437;1254;109588;-68
2023/06/11 07:42:56;;;;;;;10.10;3.90;;;;;;;23.48;53.78;100708.52;107269;1259;109240;-70
2023/06/11 07:45:25;;;;;;;8.20;3.60;;;;;;;23.44;53.71;100706.27;107331;1254;97861;-69
2023/06/11 07:47:53;;;;;;;8.60;3.90;;;;;;;23.47;53.81;100704.39;107373;1257;98350;-68
2023/06/11 07:50:21;;;;;;;6.00;3.50;;;;;;;23.51;53.80;100703.69;107254;1254;111880;-68
2023/06/11 07:52:50;;;;;;;11.60;5.10;;;;;;;23.50;53.66;100701.84;107377;1254;109319;-69
2023/06/11 07:55:23;;;;;;;10.80;4.80;;;;;;;23.45;53.52;100699.42;107454;1254;108496;-67
2023/06/11 07:57:51;;;;;;;12.60;4.40;;;;;;;23.50;53.62;100702.38;107435;1254;97825;-68
2023/06/11 08:00:19;;;;;;;7.70;4.10;;;;;;;23.61;53.42;100703.42;107470;1254;97713;-66
2023/06/11 08:02:48;;;;;;;9.10;4.30;;;;;;;23.70;53.27;100703.30;106740;1255;969270;-68
2023/06/11 08:05:21;;;;;;;9.60;4.40;;;;;;;23.81;52.69;100701.46;107543;1254;109808;-68
2023/06/11 08:07:51;;;;;;;10.90;4.40;;;;;;;23.84;52.09;100706.82;107479;1255;107476;-68
2023/06/11 08:10:20;;;;;;;10.20;4.10;;;;;;;23.85;52.21;100702.58;107426;1254;97822;-67
2023/06/11 08:12:48;;;;;;;9.80;4.10;;;;;;;23.86;52.16;100701.34;107446;1254;97810;-67
2023/06/11 08:15:17;;;;;;;8.60;3.80;;;;;;;23.97;52.07;100698.14;107462;1255;111890;-68
2023/06/11 08:17:46;;;;;;;14.50;4.30;;;;;;;24.10;51.58;100698.38;107320;1254;109227;-66
2023/06/11 08:20:16;;;;;;;4.40;3.70;;;;;;;24.19;51.23;100695.61;107518;1253;108128;-67
2023/06/11 08:22:44;;;;;;;11.20;4.60;;;;;;;24.26;51.07;100697.09;107473;1254;97903;-69
2023/06/11 08:25:13;;;;;;;12.90;4.30;;;;;;;24.36;50.74;100697.53;107482;1254;97717;-67
2023/06/11 08:27:41;;;;;;;8.10;3.90;;;;;;;24.49;50.57;100702.11;107508;1254;112121;-69
2023/06/11 08:30:10;;;;;;;8.50;3.80;;;;;;;24.62;50.19;100697.25;107531;1254;109057;-68
2023/06/11 08:32:39;;;;;;;8.20;4.40;;;;;;;24.80;49.75;100693.98;107465;1254;106732;-68
2023/06/11 08:35:07;;;;;;;13.90;4.40;;;;;;;24.87;48.71;100692.12;107483;1254;97847;-70
2023/06/11 08:37:36;;;;;;;19.40;5.70;;;;;;;24.85;49.30;100696.85;107440;1254;97706;-68
2023/06/11 08:40:08;;;;;;;13.50;5.10;;;;;;;25.01;49.18;100693.86;107508;1254;111278;-69
2023/06/11 08:42:37;;;;;;;10.50;4.90;;;;;;;25.20;48.72;100696.36;107548;1254;108930;-70
2023/06/11 08:45:07;;;;;;;11.40;4.60;;;;;;;25.34;48.16;100695.77;107462;1254;108270;-68
2023/06/11 08:47:41;;;;;;;7.10;4.10;;;;;;;25.37;47.84;100691.14;107516;1254;97907;-69
2023/06/11 08:50:10;;;;;;;13.30;4.20;;;;;;;25.42;48.25;100687.49;107524;1254;97835;-68
2023/06/11 08:52:41;;;;;;;6.20;3.80;;;;;;;25.55;48.19;100688.05;107490;1254;111105;-67
2023/06/11 08:55:09;;;;;;;9.50;4.00;;;;;;;25.65;47.84;100684.39;107472;1254;107520;-68
2023/06/11 08:57:38;;;;;;;9.10;3.60;;;;;;;25.77;47.55;100687.14;107420;1253;109551;-68
2023/06/11 09:00:09;;;;;;;10.70;4.50;;;;;;;25.91;47.26;100686.67;107419;1258;97709;-67
2023/06/11 09:02:39;;;;;;;12.30;4.20;;;;;;;26.03;47.05;100684.34;107494;1254;97818;-70
2023/06/11 09:05:08;;;;;;;12.80;3.90;;;;;;;26.15;46.64;100681.33;107536;1254;110622;-68
2023/06/11 09:07:37;;;;;;;6.20;4.10;;;;;;;26.21;46.22;100681.91;107519;1259;108983;-70
2023/06/11 09:10:10;;;;;;;11.60;4.00;;;;;;;26.18;46.38;100680.36;107517;1254;108412;-68
2023/06/11 09:12:38;;;;;;;13.10;4.00;;;;;;;26.24;46.01;100673.09;107430;1254;97704;-70
2023/06/11 09:15:07;;;;;;;12.60;4.30;;;;;;;26.31;46.04;100672.52;107447;1258;97914;-68
2023/06/11 09:17:37;;;;;;;9.60;3.60;;;;;;;26.43;45.90;100678.71;107481;1254;111867;-69
2023/06/11 09:20:11;;;;;;;10.80;3.90;;;;;;;26.61;45.77;100675.28;107464;1255;109814;-68
2023/06/11 09:22:43;;;;;;;8.30;3.50;;;;;;;26.84;44.95;100673.91;107452;1253;108669;-67
2023/06/11 09:25:16;;;;;;;6.60;3.70;;;;;;;26.88;45.19;100676.36;107478;1254;97813;-68
2023/06/11 09:27:47;;;;;;;6.20;3.90;;;;;;;27.13;44.88;100675.48;107469;1254;97787;-68
2023/06/11 09:30:18;;;;;;;9.00;4.00;;;;;;;27.38;44.50;100677.05;107552;1254;110937;-68
2023/06/11 09:32:48;;;;;;;7.70;3.40;;;;;;;27.53;43.56;100673.68;107479;1254;109171;-68
2023/06/11 09:35:17;;;;;;;10.70;3.40;;;;;;;27.66;42.70;100672.65;107432;1257;107542;-71
2023/06/11 09:37:51;;;;;;;16.90;4.50;;;;;;;27.83;42.77;100672.02;107431;1254;97822;-68
2023/06/11 09:40:23;;;;;;;9.20;3.20;;;;;;;27.74;42.70;100675.21;107426;1254;98426;-69
2023/06/11 09:42:52;;;;;;;7.70;3.40;;;;;;;27.68;42.66;100678.05;107439;1254;112474;-70
2023/06/11 09:45:21;;;;;;;11.80;3.30;;;;;;;27.60;42.62;100675.55;107427;1254;110216;-68
2023/06/11 09:47:51;;;;;;;11.40;3.20;;;;;;;27.55;42.93;100672.61;107395;1254;108146;-67
2023/06/11 09:50:21;;;;;;;10.10;3.00;;;;;;;27.72;42.19;100674.48;107448;1254;97890;-66
2023/06/11 09:52:52;;;;;;;12.00;4.10;;;;;;;28.07;42.17;100669.45;107428;1254;97818;-70
2023/06/11 09:55:21;;;;;;;13.00;4.20;;;;;;;28.25;41.35;100672.52;107443;1254;112028;-69
2023/06/11 09:57:53;;;;;;;11.30;3.60;;;;;;;28.20;41.85;100668.24;107458;1255;109892;-69
2023/06/11 10:00:21;;;;;;;8.50;3.80;;;;;;;28.30;42.45;100665.38;107175;1262;108724;-68
2023/06/11 10:02:51;;;;;;;8.00;3.20;;;;;;;28.46;41.72;100669.27;107400;1254;97839;-68
2023/06/11 10:05:20;;;;;;;13.60;3.40;;;;;;;28.40;41.66;100666.72;107455;1259;97850;-69
2023/06/11 10:07:58;;;;;;;8.70;3.40;;;;;;;28.52;41.72;100662.59;107455;1254;112189;-70
2023/06/11 10:10:29;;;;;;;10.00;3.80;;;;;;;28.89;40.93;100656.91;107437;1257;110003;-69
2023/06/11 10:12:58;;;;;;;8.40;3.50;;;;;;;29.29;40.12;100657.56;107406;1260;108927;-70
2023/06/11 10:15:30;;;;;;;13.80;3.70;;;;;;;29.51;40.10;100658.52;107432;1259;97724;-69
2023/06/11 10:17:59;;;;;;;10.10;3.70;;;;;;;29.52;39.27;100652.70;107435;1259;97793;-69
2023/06/11 10:20:35;;;;;;;9.30;3.50;;;;;;;29.34;39.13;100658.33;107420;1255;110920;-70
2023/06/11 10:23:11;;;;;;;9.60;3.80;;;;;;;28.99;39.56;100654.20;107476;1254;108698;-69
2023/06/11 10:25:40;;;;;;;8.90;3.90;;;;;;;28.69;40.19;100658.41;107383;1259;107892;-69
2023/06/11 10:28:09;;;;;;;6.00;3.40;;;;;;;28.42;40.48;100661.43;107488;1253;97720;-67
2023/06/11 10:30:38;;;;;;;9.10;3.50;;;;;;;28.08;40.95;100659.05;107579;1257;98356;-68
2023/06/11 10:33:06;;;;;;;11.70;4.00;;;;;;;27.92;41.10;100653.03;107444;1255;112716;-67
2023/06/11 10:35:36;;;;;;;8.20;3.80;;;;;;;27.77;41.73;100657.02;107468;1254;110282;-66
2023/06/11 10:38:07;;;;;;;9.10;4.00;;;;;;;27.65;42.23;100657.95;107384;1254;107845;-68
2023/06/11 10:40:37;;;;;;;14.40;3.90;;;;;;;27.55;42.19;100654.59;107411;1254;97706;-70
2023/06/11 10:43:15;;;;;;;6.50;3.80;;;;;;;27.35;42.14;100657.58;107398;1254;97780;-68
2023/06/11 10:45:44;;;;;;;9.50;3.70;;;;;;;27.09;43.16;100654.15;107448;1254;110212;-69
2023/06/11 10:48:27;;;;;;;14.40;5.20;;;;;;;27.01;43.46;100651.04;107396;1254;108571;-70
2023/06/11 10:51:03;;;;;;;10.50;4.40;;;;;;;27.04;43.72;100649.36;107363;1254;108755;-70
2023/06/11 10:53:40;;;;;;;14.30;5.30;;;;;;;27.04;43.81;100651.41;107425;1260;97816;-70
2023/06/11 10:56:11;;;;;;;9.10;4.50;;;;;;;27.06;43.48;100652.13;107444;1254;98404;-70
2023/06/11 10:58:40;;;;;;;11.90;6.00;;;;;;;27.05;43.71;100648.79;107457;1258;110410;-71
2023/06/11 11:01:09;;;;;;;13.40;6.00;;;;;;;27.19;43.79;100650.13;107456;1260;109872;-70
2023/06/11 11:03:38;;;;;;;12.00;5.50;;;;;;;27.38;43.54;100646.75;107422;1258;107956;-69
2023/06/11 11:06:08;;;;;;;8.00;4.20;;;;;;;27.68;43.30;100645.40;107406;1258;98365;-68
2023/06/11 11:08:36;;;;;;;7.40;4.20;;;;;;;27.81;42.48;100637.67;107406;1255;97816;-68
2023/06/11 11:11:05;;;;;;;13.40;4.30;;;;;;;27.84;42.62;100643.35;107405;1258;110911;-69
2023/06/11 11:13:35;;;;;;;11.30;3.70;;;;;;;27.83;42.35;100641.56;107365;1255;110389;-69
2023/06/11 11:16:04;;;;;;;12.50;4.30;;;;;;;27.94;42.20;100641.05;107389;1259;108540;-68
2023/06/11 11:18:33;;;;;;;10.80;4.40;;;;;;;28.07;41.83;100648.17;107459;1254;97914;-71
2023/06/11 11:21:01;;;;;;;9.90;4.10;;;;;;;28.10;41.15;100644.23;107420;1255;97825;-74
2023/06/11 11:23:33;;;;;;;8.10;4.10;;;;;;;28.09;40.80;100642.92;107449;1260;112119;-69